sensor_id;sensor_type;location;lat;lon;timestamp;P1;durP1;ratioP1;P2;durP2;ratioP2
67456;SDS011;54319;52.038;4.640;2023-03-05T00:01:15;10.00;;;1.88;;
67456;SDS011;54319;52.038;4.640;2023-03-05T00:03:43;5.43;;;2.03;;
67456;SDS011;54319;52.038;4.640;2023-03-05T00:06:12;9.95;;;1.80;;
67456;SDS011;54319;52.038;4.640;2023-03-05T00:08:39;5.47;;;1.92;;
67456;SDS011;54319;52.038;4.640;2023-03-05T00:11:06;10.48;;;1.88;;
67456;SDS011;54319;52.038;4.640;2023-03-05T00:13:35;5.22;;;1.42;;
67456;SDS011;54319;52.038;4.640;2023-03-05T00:18:29;2.97;;;1.15;;
67456;SDS011;54319;52.038;4.640;2023-03-05T00:20:56;3.53;;;1.50;;
67456;SDS011;54319;52.038;4.640;2023-03-05T00:23:24;2.65;;;1.58;;
67456;SDS011;54319;52.038;4.640;2023-03-05T00:25:50;2.58;;;1.67;;
67456;SDS011;54319;52.038;4.640;2023-03-05T00:28:17;6.10;;;1.95;;
67456;SDS011;54319;52.038;4.640;2023-03-05T00:30:44;5.65;;;1.88;;
67456;SDS011;54319;52.038;4.640;2023-03-05T00:33:12;9.20;;;1.90;;
67456;SDS011;54319;52.038;4.640;2023-03-05T00:35:39;4.80;;;1.60;;
67456;SDS011;54319;52.038;4.640;2023-03-05T00:38:06;11.82;;;2.13;;
67456;SDS011;54319;52.038;4.640;2023-03-05T00:40:35;3.42;;;1.83;;
67456;SDS011;54319;52.038;4.640;2023-03-05T00:43:03;8.13;;;2.00;;
67456;SDS011;54319;52.038;4.640;2023-03-05T00:47:57;4.40;;;2.08;;
67456;SDS011;54319;52.038;4.640;2023-03-05T00:50:24;3.90;;;1.40;;
67456;SDS011;54319;52.038;4.640;2023-03-05T00:52:52;5.13;;;1.83;;
67456;SDS011;54319;52.038;4.640;2023-03-05T00:55:19;6.90;;;2.67;;
67456;SDS011;54319;52.038;4.640;2023-03-05T00:57:46;9.00;;;1.90;;
67456;SDS011;54319;52.038;4.640;2023-03-05T01:00:14;3.88;;;1.88;;
67456;SDS011;54319;52.038;4.640;2023-03-05T01:02:41;5.30;;;2.22;;
67456;SDS011;54319;52.038;4.640;2023-03-05T01:05:09;9.32;;;1.98;;
67456;SDS011;54319;52.038;4.640;2023-03-05T01:07:36;8.88;;;2.00;;
67456;SDS011;54319;52.038;4.640;2023-03-05T01:10:03;7.47;;;1.80;;
67456;SDS011;54319;52.038;4.640;2023-03-05T01:12:31;6.28;;;2.03;;
67456;SDS011;54319;52.038;4.640;2023-03-05T01:14:59;5.70;;;2.10;;
67456;SDS011;54319;52.038;4.640;2023-03-05T01:17:27;7.88;;;2.15;;
67456;SDS011;54319;52.038;4.640;2023-03-05T01:22:20;7.77;;;2.30;;
67456;SDS011;54319;52.038;4.640;2023-03-05T01:24:47;8.35;;;2.40;;
67456;SDS011;54319;52.038;4.640;2023-03-05T01:27:13;6.72;;;2.70;;
67456;SDS011;54319;52.038;4.640;2023-03-05T01:29:40;5.20;;;2.13;;
67456;SDS011;54319;52.038;4.640;2023-03-05T01:32:08;7.28;;;2.28;;
67456;SDS011;54319;52.038;4.640;2023-03-05T01:34:35;9.00;;;2.47;;
67456;SDS011;54319;52.038;4.640;2023-03-05T01:37:02;6.32;;;2.47;;
67456;SDS011;54319;52.038;4.640;2023-03-05T01:39:28;9.77;;;2.50;;
67456;SDS011;54319;52.038;4.640;2023-03-05T01:41:55;8.15;;;2.53;;
67456;SDS011;54319;52.038;4.640;2023-03-05T01:44:23;6.93;;;2.05;;
67456;SDS011;54319;52.038;4.640;2023-03-05T01:46:51;8.38;;;2.30;;
67456;SDS011;54319;52.038;4.640;2023-03-05T01:49:22;7.93;;;2.40;;
67456;SDS011;54319;52.038;4.640;2023-03-05T01:51:53;8.15;;;2.08;;
67456;SDS011;54319;52.038;4.640;2023-03-05T01:54:25;4.78;;;2.08;;
67456;SDS011;54319;52.038;4.640;2023-03-05T01:56:56;5.38;;;2.10;;
67456;SDS011;54319;52.038;4.640;2023-03-05T01:59:27;4.63;;;2.20;;
67456;SDS011;54319;52.038;4.640;2023-03-05T02:01:54;8.53;;;2.23;;
67456;SDS011;54319;52.038;4.640;2023-03-05T02:04:26;4.93;;;2.00;;
67456;SDS011;54319;52.038;4.640;2023-03-05T02:06:57;5.18;;;2.17;;
67456;SDS011;54319;52.038;4.640;2023-03-05T02:09:25;4.63;;;2.10;;
67456;SDS011;54319;52.038;4.640;2023-03-05T02:11:52;4.85;;;2.25;;
67456;SDS011;54319;52.038;4.640;2023-03-05T02:14:20;3.75;;;2.05;;
67456;SDS011;54319;52.038;4.640;2023-03-05T02:16:48;14.93;;;2.60;;
67456;SDS011;54319;52.038;4.640;2023-03-05T02:19:15;5.53;;;2.23;;
67456;SDS011;54319;52.038;4.640;2023-03-05T02:21:44;5.60;;;1.90;;
67456;SDS011;54319;52.038;4.640;2023-03-05T02:24:11;6.03;;;2.00;;
67456;SDS011;54319;52.038;4.640;2023-03-05T02:26:39;7.32;;;1.90;;
67456;SDS011;54319;52.038;4.640;2023-03-05T02:29:09;7.00;;;1.92;;
67456;SDS011;54319;52.038;4.640;2023-03-05T02:31:38;3.35;;;1.90;;
67456;SDS011;54319;52.038;4.640;2023-03-05T02:34:06;8.68;;;2.47;;
67456;SDS011;54319;52.038;4.640;2023-03-05T02:39:00;2.85;;;1.85;;
67456;SDS011;54319;52.038;4.640;2023-03-05T02:41:27;12.15;;;2.17;;
67456;SDS011;54319;52.038;4.640;2023-03-05T02:43:54;9.82;;;2.53;;
67456;SDS011;54319;52.038;4.640;2023-03-05T02:46:21;4.22;;;2.15;;
67456;SDS011;54319;52.038;4.640;2023-03-05T02:48:48;5.22;;;2.20;;
67456;SDS011;54319;52.038;4.640;2023-03-05T02:51:15;3.80;;;1.80;;
67456;SDS011;54319;52.038;4.640;2023-03-05T02:53:43;5.28;;;2.03;;
67456;SDS011;54319;52.038;4.640;2023-03-05T02:56:11;4.82;;;1.92;;
67456;SDS011;54319;52.038;4.640;2023-03-05T02:58:38;7.13;;;2.42;;
67456;SDS011;54319;52.038;4.640;2023-03-05T03:01:04;5.63;;;2.33;;
67456;SDS011;54319;52.038;4.640;2023-03-05T03:03:31;10.18;;;2.42;;
67456;SDS011;54319;52.038;4.640;2023-03-05T03:05:57;3.60;;;2.08;;
67456;SDS011;54319;52.038;4.640;2023-03-05T03:08:25;6.70;;;2.28;;
67456;SDS011;54319;52.038;4.640;2023-03-05T03:13:21;5.18;;;2.30;;
67456;SDS011;54319;52.038;4.640;2023-03-05T03:15:48;3.90;;;2.08;;
67456;SDS011;54319;52.038;4.640;2023-03-05T03:18:15;4.55;;;2.30;;
67456;SDS011;54319;52.038;4.640;2023-03-05T03:20:41;7.28;;;2.40;;
67456;SDS011;54319;52.038;4.640;2023-03-05T03:23:08;4.72;;;2.30;;
67456;SDS011;54319;52.038;4.640;2023-03-05T03:25:34;5.00;;;2.15;;
67456;SDS011;54319;52.038;4.640;2023-03-05T03:28:01;5.20;;;2.20;;
67456;SDS011;54319;52.038;4.640;2023-03-05T03:30:29;3.72;;;2.30;;
67456;SDS011;54319;52.038;4.640;2023-03-05T03:32:56;8.63;;;2.80;;
67456;SDS011;54319;52.038;4.640;2023-03-05T03:35:23;3.15;;;2.28;;
67456;SDS011;54319;52.038;4.640;2023-03-05T03:37:49;9.93;;;2.15;;
67456;SDS011;54319;52.038;4.640;2023-03-05T03:40:16;10.07;;;2.30;;
67456;SDS011;54319;52.038;4.640;2023-03-05T03:42:43;4.37;;;1.80;;
67456;SDS011;54319;52.038;4.640;2023-03-05T03:45:10;7.72;;;1.90;;
67456;SDS011;54319;52.038;4.640;2023-03-05T03:50:05;2.65;;;1.50;;
67456;SDS011;54319;52.038;4.640;2023-03-05T03:52:32;3.20;;;1.65;;
67456;SDS011;54319;52.038;4.640;2023-03-05T03:54:59;3.00;;;1.42;;
67456;SDS011;54319;52.038;4.640;2023-03-05T03:57:27;3.47;;;1.55;;
67456;SDS011;54319;52.038;4.640;2023-03-05T04:02:20;3.35;;;1.38;;
67456;SDS011;54319;52.038;4.640;2023-03-05T04:04:48;3.63;;;1.37;;
67456;SDS011;54319;52.038;4.640;2023-03-05T04:07:16;2.75;;;1.33;;
67456;SDS011;54319;52.038;4.640;2023-03-05T04:09:44;5.13;;;1.38;;
67456;SDS011;54319;52.038;4.640;2023-03-05T04:12:10;2.60;;;1.35;;
67456;SDS011;54319;52.038;4.640;2023-03-05T04:14:42;3.13;;;1.30;;
67456;SDS011;54319;52.038;4.640;2023-03-05T04:17:09;3.38;;;1.60;;
67456;SDS011;54319;52.038;4.640;2023-03-05T04:19:37;5.18;;;1.58;;
67456;SDS011;54319;52.038;4.640;2023-03-05T04:22:05;4.83;;;1.53;;
67456;SDS011;54319;52.038;4.640;2023-03-05T04:24:32;7.50;;;1.83;;
67456;SDS011;54319;52.038;4.640;2023-03-05T04:26:58;2.90;;;1.70;;
67456;SDS011;54319;52.038;4.640;2023-03-05T04:29:25;3.53;;;1.63;;
67456;SDS011;54319;52.038;4.640;2023-03-05T04:31:52;5.63;;;1.70;;
67456;SDS011;54319;52.038;4.640;2023-03-05T04:34:18;2.50;;;1.75;;
67456;SDS011;54319;52.038;4.640;2023-03-05T04:36:45;7.60;;;2.08;;
67456;SDS011;54319;52.038;4.640;2023-03-05T04:39:13;7.72;;;2.15;;
67456;SDS011;54319;52.038;4.640;2023-03-05T04:41:40;6.72;;;2.33;;
67456;SDS011;54319;52.038;4.640;2023-03-05T04:44:06;3.97;;;1.88;;
67456;SDS011;54319;52.038;4.640;2023-03-05T04:46:33;4.80;;;2.13;;
67456;SDS011;54319;52.038;4.640;2023-03-05T04:49:01;5.35;;;2.20;;
67456;SDS011;54319;52.038;4.640;2023-03-05T04:53:54;4.00;;;2.20;;
67456;SDS011;54319;52.038;4.640;2023-03-05T04:56:22;3.42;;;1.90;;
67456;SDS011;54319;52.038;4.640;2023-03-05T04:58:49;5.05;;;1.95;;
67456;SDS011;54319;52.038;4.640;2023-03-05T05:01:15;6.23;;;2.27;;
67456;SDS011;54319;52.038;4.640;2023-03-05T05:03:42;6.93;;;1.90;;
67456;SDS011;54319;52.038;4.640;2023-03-05T05:06:09;3.83;;;1.88;;
67456;SDS011;54319;52.038;4.640;2023-03-05T05:08:36;4.15;;;1.77;;
67456;SDS011;54319;52.038;4.640;2023-03-05T05:11:03;2.20;;;1.52;;
67456;SDS011;54319;52.038;4.640;2023-03-05T05:13:32;2.90;;;1.50;;
67456;SDS011;54319;52.038;4.640;2023-03-05T05:16:00;6.18;;;1.90;;
67456;SDS011;54319;52.038;4.640;2023-03-05T05:18:26;4.90;;;1.83;;
67456;SDS011;54319;52.038;4.640;2023-03-05T05:20:53;1.80;;;1.58;;
67456;SDS011;54319;52.038;4.640;2023-03-05T05:23:20;3.88;;;1.70;;
67456;SDS011;54319;52.038;4.640;2023-03-05T05:25:54;2.55;;;1.40;;
67456;SDS011;54319;52.038;4.640;2023-03-05T05:28:21;4.35;;;1.90;;
67456;SDS011;54319;52.038;4.640;2023-03-05T05:30:49;3.83;;;2.05;;
67456;SDS011;54319;52.038;4.640;2023-03-05T05:33:15;4.25;;;1.70;;
67456;SDS011;54319;52.038;4.640;2023-03-05T05:35:42;4.88;;;1.52;;
67456;SDS011;54319;52.038;4.640;2023-03-05T05:38:09;3.05;;;1.60;;
67456;SDS011;54319;52.038;4.640;2023-03-05T05:40:35;2.90;;;1.50;;
67456;SDS011;54319;52.038;4.640;2023-03-05T05:43:02;5.57;;;1.70;;
67456;SDS011;54319;52.038;4.640;2023-03-05T05:45:30;1.80;;;1.53;;
67456;SDS011;54319;52.038;4.640;2023-03-05T05:50:24;4.35;;;1.95;;
67456;SDS011;54319;52.038;4.640;2023-03-05T05:52:52;2.78;;;1.50;;
67456;SDS011;54319;52.038;4.640;2023-03-05T05:55:19;3.83;;;2.13;;
67456;SDS011;54319;52.038;4.640;2023-03-05T05:57:46;6.40;;;1.88;;
67456;SDS011;54319;52.038;4.640;2023-03-05T06:00:13;5.72;;;1.77;;
67456;SDS011;54319;52.038;4.640;2023-03-05T06:05:09;1.90;;;1.70;;
67456;SDS011;54319;52.038;4.640;2023-03-05T06:07:38;2.03;;;1.52;;
67456;SDS011;54319;52.038;4.640;2023-03-05T06:10:06;7.05;;;2.22;;
67456;SDS011;54319;52.038;4.640;2023-03-05T06:12:34;3.03;;;1.60;;
67456;SDS011;54319;52.038;4.640;2023-03-05T06:15:00;1.73;;;1.48;;
67456;SDS011;54319;52.038;4.640;2023-03-05T06:17:27;1.92;;;1.58;;
67456;SDS011;54319;52.038;4.640;2023-03-05T06:19:54;4.50;;;1.57;;
67456;SDS011;54319;52.038;4.640;2023-03-05T06:22:22;4.72;;;1.77;;
67456;SDS011;54319;52.038;4.640;2023-03-05T06:24:48;2.17;;;1.70;;
67456;SDS011;54319;52.038;4.640;2023-03-05T06:27:15;2.60;;;1.73;;
67456;SDS011;54319;52.038;4.640;2023-03-05T06:29:42;7.47;;;1.60;;
67456;SDS011;54319;52.038;4.640;2023-03-05T06:32:08;5.15;;;1.65;;
67456;SDS011;54319;52.038;4.640;2023-03-05T06:34:35;2.28;;;1.70;;
67456;SDS011;54319;52.038;4.640;2023-03-05T06:37:02;4.40;;;1.38;;
67456;SDS011;54319;52.038;4.640;2023-03-05T06:39:30;3.57;;;1.20;;
67456;SDS011;54319;52.038;4.640;2023-03-05T06:41:57;1.50;;;1.17;;
67456;SDS011;54319;52.038;4.640;2023-03-05T06:44:24;1.77;;;1.15;;
67456;SDS011;54319;52.038;4.640;2023-03-05T06:46:51;1.55;;;1.40;;
67456;SDS011;54319;52.038;4.640;2023-03-05T06:51:44;1.38;;;0.95;;
67456;SDS011;54319;52.038;4.640;2023-03-05T06:54:12;1.55;;;1.20;;
67456;SDS011;54319;52.038;4.640;2023-03-05T06:56:43;1.00;;;0.90;;
67456;SDS011;54319;52.038;4.640;2023-03-05T06:59:12;2.75;;;1.00;;
67456;SDS011;54319;52.038;4.640;2023-03-05T07:01:41;3.17;;;0.90;;
67456;SDS011;54319;52.038;4.640;2023-03-05T07:04:07;1.30;;;1.13;;
67456;SDS011;54319;52.038;4.640;2023-03-05T07:06:35;6.10;;;1.20;;
67456;SDS011;54319;52.038;4.640;2023-03-05T07:09:03;5.05;;;1.20;;
67456;SDS011;54319;52.038;4.640;2023-03-05T07:11:32;0.90;;;0.90;;
67456;SDS011;54319;52.038;4.640;2023-03-05T07:14:00;1.55;;;1.27;;
67456;SDS011;54319;52.038;4.640;2023-03-05T07:16:29;1.92;;;1.10;;
67456;SDS011;54319;52.038;4.640;2023-03-05T07:18:57;6.18;;;1.48;;
67456;SDS011;54319;52.038;4.640;2023-03-05T07:21:27;4.53;;;1.20;;
67456;SDS011;54319;52.038;4.640;2023-03-05T07:23:56;3.92;;;1.40;;
67456;SDS011;54319;52.038;4.640;2023-03-05T07:26:24;1.20;;;1.10;;
67456;SDS011;54319;52.038;4.640;2023-03-05T07:28:52;1.92;;;1.20;;
67456;SDS011;54319;52.038;4.640;2023-03-05T07:31:21;2.80;;;1.25;;
67456;SDS011;54319;52.038;4.640;2023-03-05T07:33:51;3.75;;;1.20;;
67456;SDS011;54319;52.038;4.640;2023-03-05T07:36:18;2.85;;;1.40;;
67456;SDS011;54319;52.038;4.640;2023-03-05T07:38:45;1.20;;;1.13;;
67456;SDS011;54319;52.038;4.640;2023-03-05T07:41:12;2.38;;;1.33;;
67456;SDS011;54319;52.038;4.640;2023-03-05T07:43:43;2.20;;;1.20;;
67456;SDS011;54319;52.038;4.640;2023-03-05T07:46:13;1.42;;;0.98;;
67456;SDS011;54319;52.038;4.640;2023-03-05T07:48:42;2.58;;;0.82;;
67456;SDS011;54319;52.038;4.640;2023-03-05T07:51:10;1.08;;;0.98;;
67456;SDS011;54319;52.038;4.640;2023-03-05T07:53:39;5.05;;;1.30;;
67456;SDS011;54319;52.038;4.640;2023-03-05T07:56:06;2.07;;;1.30;;
67456;SDS011;54319;52.038;4.640;2023-03-05T07:58:33;3.15;;;1.63;;
67456;SDS011;54319;52.038;4.640;2023-03-05T08:01:00;3.03;;;1.38;;
67456;SDS011;54319;52.038;4.640;2023-03-05T08:03:27;2.57;;;1.20;;
67456;SDS011;54319;52.038;4.640;2023-03-05T08:05:54;2.47;;;1.20;;
67456;SDS011;54319;52.038;4.640;2023-03-05T08:08:21;2.88;;;1.42;;
67456;SDS011;54319;52.038;4.640;2023-03-05T08:10:48;2.70;;;1.15;;
67456;SDS011;54319;52.038;4.640;2023-03-05T08:13:14;2.28;;;1.02;;
67456;SDS011;54319;52.038;4.640;2023-03-05T08:15:41;6.07;;;1.50;;
67456;SDS011;54319;52.038;4.640;2023-03-05T08:18:08;3.55;;;1.40;;
67456;SDS011;54319;52.038;4.640;2023-03-05T08:20:34;1.48;;;1.00;;
67456;SDS011;54319;52.038;4.640;2023-03-05T08:23:02;3.63;;;1.38;;
67456;SDS011;54319;52.038;4.640;2023-03-05T08:25:29;3.08;;;1.52;;
67456;SDS011;54319;52.038;4.640;2023-03-05T08:27:56;2.15;;;1.20;;
67456;SDS011;54319;52.038;4.640;2023-03-05T08:30:24;3.20;;;1.08;;
67456;SDS011;54319;52.038;4.640;2023-03-05T08:32:51;1.80;;;1.25;;
67456;SDS011;54319;52.038;4.640;2023-03-05T08:35:20;2.67;;;1.00;;
67456;SDS011;54319;52.038;4.640;2023-03-05T08:37:47;3.10;;;1.08;;
67456;SDS011;54319;52.038;4.640;2023-03-05T08:40:15;4.60;;;1.55;;
67456;SDS011;54319;52.038;4.640;2023-03-05T08:42:43;3.42;;;0.95;;
67456;SDS011;54319;52.038;4.640;2023-03-05T08:45:10;2.22;;;1.02;;
67456;SDS011;54319;52.038;4.640;2023-03-05T08:47:37;8.52;;;2.70;;
67456;SDS011;54319;52.038;4.640;2023-03-05T08:50:04;1.00;;;0.75;;
67456;SDS011;54319;52.038;4.640;2023-03-05T08:52:31;2.55;;;0.80;;
67456;SDS011;54319;52.038;4.640;2023-03-05T08:54:58;0.90;;;0.70;;
67456;SDS011;54319;52.038;4.640;2023-03-05T08:57:28;4.88;;;1.17;;
67456;SDS011;54319;52.038;4.640;2023-03-05T08:59:55;4.22;;;0.90;;
67456;SDS011;54319;52.038;4.640;2023-03-05T09:02:22;2.75;;;1.10;;
67456;SDS011;54319;52.038;4.640;2023-03-05T09:04:48;2.38;;;0.68;;
67456;SDS011;54319;52.038;4.640;2023-03-05T09:07:15;3.70;;;1.15;;
67456;SDS011;54319;52.038;4.640;2023-03-05T09:09:42;1.90;;;1.10;;
67456;SDS011;54319;52.038;4.640;2023-03-05T09:12:08;2.60;;;1.45;;
67456;SDS011;54319;52.038;4.640;2023-03-05T09:14:38;1.30;;;0.82;;
67456;SDS011;54319;52.038;4.640;2023-03-05T09:17:06;2.95;;;0.90;;
67456;SDS011;54319;52.038;4.640;2023-03-05T09:19:33;3.90;;;1.15;;
67456;SDS011;54319;52.038;4.640;2023-03-05T09:22:00;3.30;;;1.05;;
67456;SDS011;54319;52.038;4.640;2023-03-05T09:24:26;5.75;;;1.00;;
67456;SDS011;54319;52.038;4.640;2023-03-05T09:26:56;4.07;;;1.00;;
67456;SDS011;54319;52.038;4.640;2023-03-05T09:29:23;1.63;;;0.70;;
67456;SDS011;54319;52.038;4.640;2023-03-05T09:31:53;2.85;;;1.08;;
67456;SDS011;54319;52.038;4.640;2023-03-05T09:34:20;1.98;;;0.88;;
67456;SDS011;54319;52.038;4.640;2023-03-05T09:36:47;0.80;;;0.70;;
67456;SDS011;54319;52.038;4.640;2023-03-05T09:39:13;1.10;;;1.00;;
67456;SDS011;54319;52.038;4.640;2023-03-05T09:41:50;2.75;;;1.55;;
67456;SDS011;54319;52.038;4.640;2023-03-05T09:44:44;2.35;;;0.80;;
67456;SDS011;54319;52.038;4.640;2023-03-05T09:47:22;3.08;;;0.75;;
67456;SDS011;54319;52.038;4.640;2023-03-05T09:50:03;1.50;;;0.68;;
67456;SDS011;54319;52.038;4.640;2023-03-05T09:52:38;2.17;;;0.80;;
67456;SDS011;54319;52.038;4.640;2023-03-05T09:55:12;3.10;;;0.80;;
67456;SDS011;54319;52.038;4.640;2023-03-05T09:57:40;2.35;;;0.82;;
67456;SDS011;54319;52.038;4.640;2023-03-05T10:00:12;1.48;;;0.93;;
67456;SDS011;54319;52.038;4.640;2023-03-05T10:02:51;0.90;;;0.80;;
67456;SDS011;54319;52.038;4.640;2023-03-05T10:05:23;2.90;;;1.20;;
67456;SDS011;54319;52.038;4.640;2023-03-05T10:07:54;2.92;;;1.27;;
67456;SDS011;54319;52.038;4.640;2023-03-05T10:10:25;1.20;;;1.10;;
67456;SDS011;54319;52.038;4.640;2023-03-05T10:13:09;5.40;;;1.38;;
67456;SDS011;54319;52.038;4.640;2023-03-05T10:15:47;1.30;;;1.20;;
67456;SDS011;54319;52.038;4.640;2023-03-05T10:18:23;2.15;;;1.25;;
67456;SDS011;54319;52.038;4.640;2023-03-05T10:20:58;0.88;;;0.88;;
67456;SDS011;54319;52.038;4.640;2023-03-05T10:23:42;5.25;;;1.52;;
67456;SDS011;54319;52.038;4.640;2023-03-05T10:26:19;1.70;;;1.10;;
67456;SDS011;54319;52.038;4.640;2023-03-05T10:28:56;3.92;;;1.13;;
67456;SDS011;54319;52.038;4.640;2023-03-05T10:31:39;1.33;;;1.10;;
67456;SDS011;54319;52.038;4.640;2023-03-05T10:34:26;1.52;;;0.90;;
67456;SDS011;54319;52.038;4.640;2023-03-05T10:37:04;1.02;;;0.90;;
67456;SDS011;54319;52.038;4.640;2023-03-05T10:42:41;1.88;;;0.95;;
67456;SDS011;54319;52.038;4.640;2023-03-05T10:45:17;2.15;;;1.13;;
67456;SDS011;54319;52.038;4.640;2023-03-05T10:47:49;1.35;;;1.00;;
67456;SDS011;54319;52.038;4.640;2023-03-05T10:50:21;5.88;;;1.10;;
67456;SDS011;54319;52.038;4.640;2023-03-05T10:52:51;0.70;;;0.70;;
67456;SDS011;54319;52.038;4.640;2023-03-05T10:55:30;2.35;;;0.65;;
67456;SDS011;54319;52.038;4.640;2023-03-05T10:57:57;1.65;;;0.82;;
67456;SDS011;54319;52.038;4.640;2023-03-05T11:00:24;1.58;;;0.82;;
67456;SDS011;54319;52.038;4.640;2023-03-05T11:02:55;0.70;;;0.70;;
67456;SDS011;54319;52.038;4.640;2023-03-05T11:05:35;1.60;;;0.73;;
67456;SDS011;54319;52.038;4.640;2023-03-05T11:08:26;2.35;;;0.82;;
67456;SDS011;54319;52.038;4.640;2023-03-05T11:13:56;1.63;;;0.90;;
67456;SDS011;54319;52.038;4.640;2023-03-05T11:16:25;1.50;;;1.10;;
67456;SDS011;54319;52.038;4.640;2023-03-05T11:21:46;2.30;;;0.90;;
67456;SDS011;54319;52.038;4.640;2023-03-05T11:24:29;1.58;;;0.77;;
67456;SDS011;54319;52.038;4.640;2023-03-05T11:26:57;3.33;;;0.88;;
67456;SDS011;54319;52.038;4.640;2023-03-05T11:29:25;1.92;;;0.88;;
67456;SDS011;54319;52.038;4.640;2023-03-05T11:31:53;1.10;;;0.75;;
67456;SDS011;54319;52.038;4.640;2023-03-05T11:34:22;1.58;;;0.88;;
67456;SDS011;54319;52.038;4.640;2023-03-05T11:37:01;2.08;;;0.70;;
67456;SDS011;54319;52.038;4.640;2023-03-05T11:39:30;4.32;;;1.30;;
67456;SDS011;54319;52.038;4.640;2023-03-05T11:42:00;1.77;;;0.77;;
67456;SDS011;54319;52.038;4.640;2023-03-05T11:44:31;0.77;;;0.77;;
67456;SDS011;54319;52.038;4.640;2023-03-05T11:47:00;0.98;;;0.88;;
67456;SDS011;54319;52.038;4.640;2023-03-05T11:49:32;1.88;;;0.75;;
67456;SDS011;54319;52.038;4.640;2023-03-05T11:52:10;3.85;;;0.98;;
67456;SDS011;54319;52.038;4.640;2023-03-05T11:54:41;0.80;;;0.77;;
67456;SDS011;54319;52.038;4.640;2023-03-05T11:57:17;1.08;;;0.75;;
67456;SDS011;54319;52.038;4.640;2023-03-05T11:59:47;2.17;;;0.90;;
67456;SDS011;54319;52.038;4.640;2023-03-05T12:02:18;2.17;;;0.90;;
67456;SDS011;54319;52.038;4.640;2023-03-05T12:04:46;2.05;;;0.77;;
67456;SDS011;54319;52.038;4.640;2023-03-05T12:07:16;3.05;;;0.85;;
67456;SDS011;54319;52.038;4.640;2023-03-05T12:09:47;2.30;;;0.90;;
67456;SDS011;54319;52.038;4.640;2023-03-05T12:12:18;0.77;;;0.60;;
67456;SDS011;54319;52.038;4.640;2023-03-05T12:14:55;2.10;;;0.57;;
67456;SDS011;54319;52.038;4.640;2023-03-05T12:17:27;3.38;;;0.88;;
67456;SDS011;54319;52.038;4.640;2023-03-05T12:20:00;1.13;;;0.80;;
67456;SDS011;54319;52.038;4.640;2023-03-05T12:22:34;1.65;;;0.70;;
67456;SDS011;54319;52.038;4.640;2023-03-05T12:25:20;1.00;;;0.57;;
67456;SDS011;54319;52.038;4.640;2023-03-05T12:27:51;2.28;;;0.70;;
67456;SDS011;54319;52.038;4.640;2023-03-05T12:45:26;1.08;;;0.60;;
67456;SDS011;54319;52.038;4.640;2023-03-05T12:51:10;2.38;;;0.70;;
67456;SDS011;54319;52.038;4.640;2023-03-05T12:53:54;1.77;;;0.70;;
67456;SDS011;54319;52.038;4.640;2023-03-05T12:56:23;2.42;;;0.70;;
67456;SDS011;54319;52.038;4.640;2023-03-05T12:58:55;0.70;;;0.50;;
67456;SDS011;54319;52.038;4.640;2023-03-05T13:01:30;0.63;;;0.47;;
67456;SDS011;54319;52.038;4.640;2023-03-05T13:04:05;3.60;;;0.70;;
67456;SDS011;54319;52.038;4.640;2023-03-05T13:06:39;5.93;;;1.00;;
67456;SDS011;54319;52.038;4.640;2023-03-05T13:09:11;2.70;;;0.60;;
67456;SDS011;54319;52.038;4.640;2023-03-05T13:11:44;0.93;;;0.80;;
67456;SDS011;54319;52.038;4.640;2023-03-05T13:14:28;2.42;;;0.85;;
67456;SDS011;54319;52.038;4.640;2023-03-05T13:16:59;1.33;;;0.80;;
67456;SDS011;54319;52.038;4.640;2023-03-05T13:19:26;1.83;;;0.63;;
67456;SDS011;54319;52.038;4.640;2023-03-05T13:21:58;0.70;;;0.55;;
67456;SDS011;54319;52.038;4.640;2023-03-05T13:24:26;1.20;;;1.00;;
67456;SDS011;54319;52.038;4.640;2023-03-05T13:29:22;0.93;;;0.57;;
67456;SDS011;54319;52.038;4.640;2023-03-05T13:31:53;2.85;;;1.00;;
67456;SDS011;54319;52.038;4.640;2023-03-05T13:34:21;2.65;;;0.68;;
67456;SDS011;54319;52.038;4.640;2023-03-05T13:36:52;3.15;;;0.70;;
67456;SDS011;54319;52.038;4.640;2023-03-05T13:39:24;1.83;;;0.63;;
67456;SDS011;54319;52.038;4.640;2023-03-05T13:41:58;2.95;;;0.60;;
67456;SDS011;54319;52.038;4.640;2023-03-05T13:44:28;0.52;;;0.52;;
67456;SDS011;54319;52.038;4.640;2023-03-05T13:47:06;1.65;;;0.63;;
67456;SDS011;54319;52.038;4.640;2023-03-05T13:49:41;0.88;;;0.60;;
67456;SDS011;54319;52.038;4.640;2023-03-05T13:52:08;3.35;;;0.93;;
67456;SDS011;54319;52.038;4.640;2023-03-05T13:54:36;3.40;;;0.60;;
67456;SDS011;54319;52.038;4.640;2023-03-05T13:57:06;0.40;;;0.40;;
67456;SDS011;54319;52.038;4.640;2023-03-05T13:59:53;4.05;;;0.95;;
67456;SDS011;54319;52.038;4.640;2023-03-05T14:02:20;1.60;;;0.50;;
67456;SDS011;54319;52.038;4.640;2023-03-05T14:04:48;1.45;;;0.70;;
67456;SDS011;54319;52.038;4.640;2023-03-05T14:07:23;2.05;;;0.70;;
67456;SDS011;54319;52.038;4.640;2023-03-05T14:09:55;1.77;;;0.90;;
67456;SDS011;54319;52.038;4.640;2023-03-05T14:12:24;3.87;;;0.73;;
67456;SDS011;54319;52.038;4.640;2023-03-05T14:14:54;0.43;;;0.43;;
67456;SDS011;54319;52.038;4.640;2023-03-05T14:17:22;5.40;;;0.70;;
67456;SDS011;54319;52.038;4.640;2023-03-05T14:20:16;1.55;;;0.75;;
67456;SDS011;54319;52.038;4.640;2023-03-05T14:22:48;0.57;;;0.50;;
67456;SDS011;54319;52.038;4.640;2023-03-05T14:25:26;1.55;;;0.90;;
67456;SDS011;54319;52.038;4.640;2023-03-05T14:28:00;0.70;;;0.70;;
67456;SDS011;54319;52.038;4.640;2023-03-05T14:30:29;1.33;;;0.90;;
67456;SDS011;54319;52.038;4.640;2023-03-05T14:32:57;0.90;;;0.50;;
67456;SDS011;54319;52.038;4.640;2023-03-05T14:35:26;0.65;;;0.65;;
67456;SDS011;54319;52.038;4.640;2023-03-05T14:37:56;0.93;;;0.77;;
67456;SDS011;54319;52.038;4.640;2023-03-05T14:40:26;2.47;;;0.70;;
67456;SDS011;54319;52.038;4.640;2023-03-05T14:42:54;1.75;;;0.60;;
67456;SDS011;54319;52.038;4.640;2023-03-05T14:45:24;2.97;;;1.40;;
67456;SDS011;54319;52.038;4.640;2023-03-05T14:47:53;2.15;;;0.95;;
67456;SDS011;54319;52.038;4.640;2023-03-05T14:50:22;1.98;;;0.90;;
67456;SDS011;54319;52.038;4.640;2023-03-05T14:52:51;2.95;;;0.90;;
67456;SDS011;54319;52.038;4.640;2023-03-05T14:55:20;1.60;;;0.70;;
67456;SDS011;54319;52.038;4.640;2023-03-05T14:57:48;1.15;;;0.85;;
67456;SDS011;54319;52.038;4.640;2023-03-05T15:02:44;1.77;;;0.90;;
67456;SDS011;54319;52.038;4.640;2023-03-05T15:05:11;0.85;;;0.68;;
67456;SDS011;54319;52.038;4.640;2023-03-05T15:07:38;1.05;;;0.52;;
67456;SDS011;54319;52.038;4.640;2023-03-05T15:10:05;0.73;;;0.60;;
67456;SDS011;54319;52.038;4.640;2023-03-05T15:12:33;3.22;;;1.00;;
67456;SDS011;54319;52.038;4.640;2023-03-05T15:15:00;1.17;;;0.95;;
67456;SDS011;54319;52.038;4.640;2023-03-05T15:17:29;2.78;;;1.20;;
67456;SDS011;54319;52.038;4.640;2023-03-05T15:20:02;1.77;;;1.00;;
67456;SDS011;54319;52.038;4.640;2023-03-05T15:22:34;0.95;;;0.70;;
67456;SDS011;54319;52.038;4.640;2023-03-05T15:25:01;1.75;;;0.95;;
67456;SDS011;54319;52.038;4.640;2023-03-05T15:27:28;2.80;;;1.10;;
67456;SDS011;54319;52.038;4.640;2023-03-05T15:29:54;2.67;;;0.80;;
67456;SDS011;54319;52.038;4.640;2023-03-05T15:32:24;1.48;;;0.75;;
67456;SDS011;54319;52.038;4.640;2023-03-05T15:34:52;0.60;;;0.60;;
67456;SDS011;54319;52.038;4.640;2023-03-05T15:37:20;1.63;;;0.90;;
67456;SDS011;54319;52.038;4.640;2023-03-05T15:39:47;1.77;;;1.10;;
67456;SDS011;54319;52.038;4.640;2023-03-05T15:42:14;1.00;;;0.70;;
67456;SDS011;54319;52.038;4.640;2023-03-05T15:44:41;4.90;;;1.00;;
67456;SDS011;54319;52.038;4.640;2023-03-05T15:47:08;2.10;;;0.95;;
67456;SDS011;54319;52.038;4.640;2023-03-05T15:49:34;4.00;;;1.27;;
67456;SDS011;54319;52.038;4.640;2023-03-05T15:52:01;6.75;;;2.20;;
67456;SDS011;54319;52.038;4.640;2023-03-05T15:54:29;2.13;;;1.02;;
67456;SDS011;54319;52.038;4.640;2023-03-05T15:56:56;2.47;;;1.33;;
67456;SDS011;54319;52.038;4.640;2023-03-05T15:59:22;2.58;;;1.20;;